sensor_id;sensor_type;location;lat;lon;timestamp;temperature;humidity
4406;DHT22;2216;53.806;11.598;2022-08-19T00:00:26;22.10;51.90
4406;DHT22;2216;53.806;11.598;2022-08-19T00:02:53;21.90;51.90
4406;DHT22;2216;53.806;11.598;2022-08-19T00:05:20;21.90;52.10
4406;DHT22;2216;53.806;11.598;2022-08-19T00:07:48;21.80;52.00
4406;DHT22;2216;53.806;11.598;2022-08-19T00:10:15;21.80;52.10
4406;DHT22;2216;53.806;11.598;2022-08-19T00:12:41;21.70;52.00
4406;DHT22;2216;53.806;11.598;2022-08-19T00:15:12;21.70;52.20
4406;DHT22;2216;53.806;11.598;2022-08-19T00:17:40;21.70;52.30
4406;DHT22;2216;53.806;11.598;2022-08-19T00:20:09;21.70;52.40
4406;DHT22;2216;53.806;11.598;2022-08-19T00:22:37;21.70;52.30
4406;DHT22;2216;53.806;11.598;2022-08-19T00:25:05;21.60;52.30
4406;DHT22;2216;53.806;11.598;2022-08-19T00:27:31;21.60;52.30
4406;DHT22;2216;53.806;11.598;2022-08-19T00:29:57;21.60;52.40
4406;DHT22;2216;53.806;11.598;2022-08-19T00:32:24;21.60;52.40
4406;DHT22;2216;53.806;11.598;2022-08-19T00:34:51;21.60;52.50
4406;DHT22;2216;53.806;11.598;2022-08-19T00:37:19;21.50;52.40
4406;DHT22;2216;53.806;11.598;2022-08-19T00:39:48;21.50;52.40
4406;DHT22;2216;53.806;11.598;2022-08-19T00:42:16;21.50;52.40
4406;DHT22;2216;53.806;11.598;2022-08-19T00:44:42;21.50;52.40
4406;DHT22;2216;53.806;11.598;2022-08-19T00:47:08;21.50;52.70
4406;DHT22;2216;53.806;11.598;2022-08-19T00:49:55;21.50;52.80
4406;DHT22;2216;53.806;11.598;2022-08-19T00:52:37;21.40;52.70
4406;DHT22;2216;53.806;11.598;2022-08-19T00:55:08;21.40;52.60
4406;DHT22;2216;53.806;11.598;2022-08-19T00:57:40;21.40;52.60
4406;DHT22;2216;53.806;11.598;2022-08-19T01:00:10;21.30;52.50
4406;DHT22;2216;53.806;11.598;2022-08-19T01:02:39;21.30;52.60
4406;DHT22;2216;53.806;11.598;2022-08-19T01:05:09;21.30;52.60
4406;DHT22;2216;53.806;11.598;2022-08-19T01:07:38;21.20;52.70
4406;DHT22;2216;53.806;11.598;2022-08-19T01:10:07;21.30;52.80
4406;DHT22;2216;53.806;11.598;2022-08-19T01:12:37;21.20;52.70
4406;DHT22;2216;53.806;11.598;2022-08-19T01:15:06;21.30;52.90
4406;DHT22;2216;53.806;11.598;2022-08-19T01:17:34;21.30;52.90
4406;DHT22;2216;53.806;11.598;2022-08-19T01:20:03;21.30;52.90
4406;DHT22;2216;53.806;11.598;2022-08-19T01:22:46;21.30;52.80
4406;DHT22;2216;53.806;11.598;2022-08-19T01:25:15;21.30;52.90
4406;DHT22;2216;53.806;11.598;2022-08-19T01:27:44;21.30;53.00
4406;DHT22;2216;53.806;11.598;2022-08-19T01:30:16;21.30;53.00
4406;DHT22;2216;53.806;11.598;2022-08-19T01:32:46;21.30;53.00
4406;DHT22;2216;53.806;11.598;2022-08-19T01:35:13;21.40;53.20
4406;DHT22;2216;53.806;11.598;2022-08-19T01:37:49;21.40;53.10
4406;DHT22;2216;53.806;11.598;2022-08-19T01:40:18;21.40;53.10
4406;DHT22;2216;53.806;11.598;2022-08-19T01:42:48;21.40;53.10
4406;DHT22;2216;53.806;11.598;2022-08-19T01:45:14;21.40;53.10
4406;DHT22;2216;53.806;11.598;2022-08-19T01:47:40;21.40;53.10
4406;DHT22;2216;53.806;11.598;2022-08-19T01:50:07;21.40;53.10
4406;DHT22;2216;53.806;11.598;2022-08-19T01:52:38;21.40;53.10
4406;DHT22;2216;53.806;11.598;2022-08-19T01:55:07;21.50;53.10
4406;DHT22;2216;53.806;11.598;2022-08-19T01:57:35;21.50;53.10
4406;DHT22;2216;53.806;11.598;2022-08-19T02:00:09;21.50;53.10
4406;DHT22;2216;53.806;11.598;2022-08-19T02:02:36;21.50;53.10
4406;DHT22;2216;53.806;11.598;2022-08-19T02:05:03;21.50;53.20
4406;DHT22;2216;53.806;11.598;2022-08-19T02:07:29;21.50;53.20
4406;DHT22;2216;53.806;11.598;2022-08-19T02:09:55;21.50;53.20
4406;DHT22;2216;53.806;11.598;2022-08-19T02:12:21;21.60;53.30
4406;DHT22;2216;53.806;11.598;2022-08-19T02:14:47;21.60;53.20
4406;DHT22;2216;53.806;11.598;2022-08-19T02:17:13;21.50;53.10
4406;DHT22;2216;53.806;11.598;2022-08-19T02:19:38;21.50;53.80
4406;DHT22;2216;53.806;11.598;2022-08-19T02:22:04;21.50;53.20
4406;DHT22;2216;53.806;11.598;2022-08-19T02:24:30;21.50;53.40
4406;DHT22;2216;53.806;11.598;2022-08-19T02:26:56;21.50;53.30
4406;DHT22;2216;53.806;11.598;2022-08-19T02:29:22;21.50;53.20
4406;DHT22;2216;53.806;11.598;2022-08-19T02:31:48;21.50;53.20
4406;DHT22;2216;53.806;11.598;2022-08-19T02:34:14;21.50;53.20
4406;DHT22;2216;53.806;11.598;2022-08-19T02:36:39;21.50;53.40
4406;DHT22;2216;53.806;11.598;2022-08-19T02:39:05;21.50;53.30
4406;DHT22;2216;53.806;11.598;2022-08-19T02:41:32;21.40;53.20
4406;DHT22;2216;53.806;11.598;2022-08-19T02:43:59;21.40;53.30
4406;DHT22;2216;53.806;11.598;2022-08-19T02:46:28;21.40;53.30
4406;DHT22;2216;53.806;11.598;2022-08-19T02:48:58;21.40;53.40
4406;DHT22;2216;53.806;11.598;2022-08-19T02:51:32;21.40;53.40
4406;DHT22;2216;53.806;11.598;2022-08-19T02:54:01;21.40;53.30
4406;DHT22;2216;53.806;11.598;2022-08-19T02:56:26;21.40;53.40
4406;DHT22;2216;53.806;11.598;2022-08-19T02:58:54;21.30;53.30
4406;DHT22;2216;53.806;11.598;2022-08-19T03:01:26;21.30;53.30
4406;DHT22;2216;53.806;11.598;2022-08-19T03:03:55;21.30;53.40
4406;DHT22;2216;53.806;11.598;2022-08-19T03:06:21;21.30;53.30
4406;DHT22;2216;53.806;11.598;2022-08-19T03:08:48;21.30;53.50
4406;DHT22;2216;53.806;11.598;2022-08-19T03:11:26;21.30;53.50
4406;DHT22;2216;53.806;11.598;2022-08-19T03:13:57;21.30;53.40
4406;DHT22;2216;53.806;11.598;2022-08-19T03:16:25;21.20;53.50
4406;DHT22;2216;53.806;11.598;2022-08-19T03:18:53;21.20;53.50
4406;DHT22;2216;53.806;11.598;2022-08-19T03:21:22;21.20;53.70
4406;DHT22;2216;53.806;11.598;2022-08-19T03:23:53;21.20;53.70
4406;DHT22;2216;53.806;11.598;2022-08-19T03:26:19;21.20;53.60
4406;DHT22;2216;53.806;11.598;2022-08-19T03:28:45;21.10;53.60
4406;DHT22;2216;53.806;11.598;2022-08-19T03:31:17;21.10;53.70
4406;DHT22;2216;53.806;11.598;2022-08-19T03:33:44;21.10;53.70
4406;DHT22;2216;53.806;11.598;2022-08-19T03:36:13;21.10;53.60
4406;DHT22;2216;53.806;11.598;2022-08-19T03:38:50;21.10;53.60
4406;DHT22;2216;53.806;11.598;2022-08-19T03:41:26;21.10;53.60
4406;DHT22;2216;53.806;11.598;2022-08-19T03:43:54;21.10;53.70
4406;DHT22;2216;53.806;11.598;2022-08-19T03:46:23;21.10;53.70
4406;DHT22;2216;53.806;11.598;2022-08-19T03:48:53;21.10;53.70
4406;DHT22;2216;53.806;11.598;2022-08-19T03:51:23;21.10;53.90
4406;DHT22;2216;53.806;11.598;2022-08-19T03:53:52;21.10;53.90
4406;DHT22;2216;53.806;11.598;2022-08-19T03:56:18;21.10;54.00
4406;DHT22;2216;53.806;11.598;2022-08-19T03:58:44;21.00;54.10
4406;DHT22;2216;53.806;11.598;2022-08-19T04:01:12;21.00;54.10
4406;DHT22;2216;53.806;11.598;2022-08-19T04:03:40;21.00;54.10
4406;DHT22;2216;53.806;11.598;2022-08-19T04:06:14;21.00;54.00
4406;DHT22;2216;53.806;11.598;2022-08-19T04:08:44;21.00;54.00
4406;DHT22;2216;53.806;11.598;2022-08-19T04:11:13;21.00;54.00
4406;DHT22;2216;53.806;11.598;2022-08-19T04:13:41;21.00;54.00
4406;DHT22;2216;53.806;11.598;2022-08-19T04:16:09;20.90;54.00
4406;DHT22;2216;53.806;11.598;2022-08-19T04:18:36;21.00;54.00
4406;DHT22;2216;53.806;11.598;2022-08-19T04:21:04;20.90;54.00
4406;DHT22;2216;53.806;11.598;2022-08-19T04:23:31;20.90;54.30
4406;DHT22;2216;53.806;11.598;2022-08-19T04:25:57;20.90;54.20
4406;DHT22;2216;53.806;11.598;2022-08-19T04:28:23;21.00;54.20
4406;DHT22;2216;53.806;11.598;2022-08-19T04:30:52;20.90;54.20
4406;DHT22;2216;53.806;11.598;2022-08-19T04:33:22;20.90;54.90
4406;DHT22;2216;53.806;11.598;2022-08-19T04:35:50;20.90;54.50
4406;DHT22;2216;53.806;11.598;2022-08-19T04:38:19;20.90;54.60
4406;DHT22;2216;53.806;11.598;2022-08-19T04:40:49;20.90;54.70
4406;DHT22;2216;53.806;11.598;2022-08-19T04:43:36;20.90;54.60
4406;DHT22;2216;53.806;11.598;2022-08-19T04:46:12;20.80;54.40
4406;DHT22;2216;53.806;11.598;2022-08-19T04:48:39;20.80;54.50
4406;DHT22;2216;53.806;11.598;2022-08-19T04:51:10;20.80;54.50
4406;DHT22;2216;53.806;11.598;2022-08-19T04:53:39;20.80;54.50
4406;DHT22;2216;53.806;11.598;2022-08-19T04:56:13;20.80;54.40
4406;DHT22;2216;53.806;11.598;2022-08-19T04:58:42;20.90;54.50
4406;DHT22;2216;53.806;11.598;2022-08-19T05:01:28;20.80;54.50
4406;DHT22;2216;53.806;11.598;2022-08-19T05:03:55;20.90;54.60
4406;DHT22;2216;53.806;11.598;2022-08-19T05:06:22;20.90;54.50
4406;DHT22;2216;53.806;11.598;2022-08-19T05:08:49;20.90;54.50
4406;DHT22;2216;53.806;11.598;2022-08-19T05:11:21;20.90;54.50
4406;DHT22;2216;53.806;11.598;2022-08-19T05:13:49;20.90;54.50
4406;DHT22;2216;53.806;11.598;2022-08-19T05:16:17;21.00;54.60
4406;DHT22;2216;53.806;11.598;2022-08-19T05:18:43;21.00;54.70
4406;DHT22;2216;53.806;11.598;2022-08-19T05:21:28;21.00;54.70
4406;DHT22;2216;53.806;11.598;2022-08-19T05:24:14;21.00;54.60
4406;DHT22;2216;53.806;11.598;2022-08-19T05:26:42;21.10;54.70
4406;DHT22;2216;53.806;11.598;2022-08-19T05:29:13;21.00;54.60
4406;DHT22;2216;53.806;11.598;2022-08-19T05:31:40;21.10;54.70
4406;DHT22;2216;53.806;11.598;2022-08-19T05:34:06;21.00;54.60
4406;DHT22;2216;53.806;11.598;2022-08-19T05:36:41;21.10;54.80
4406;DHT22;2216;53.806;11.598;2022-08-19T05:39:15;21.20;54.80
4406;DHT22;2216;53.806;11.598;2022-08-19T05:41:44;21.20;54.70
4406;DHT22;2216;53.806;11.598;2022-08-19T05:44:11;21.20;54.70
4406;DHT22;2216;53.806;11.598;2022-08-19T05:46:39;21.20;54.60
4406;DHT22;2216;53.806;11.598;2022-08-19T05:49:06;21.20;54.70
4406;DHT22;2216;53.806;11.598;2022-08-19T05:51:33;21.40;54.70
4406;DHT22;2216;53.806;11.598;2022-08-19T05:54:01;21.30;54.70
4406;DHT22;2216;53.806;11.598;2022-08-19T05:56:27;21.30;54.80
4406;DHT22;2216;53.806;11.598;2022-08-19T05:58:56;21.20;54.80
4406;DHT22;2216;53.806;11.598;2022-08-19T06:01:22;21.30;54.70
4406;DHT22;2216;53.806;11.598;2022-08-19T06:03:47;21.30;54.70
4406;DHT22;2216;53.806;11.598;2022-08-19T06:06:15;21.20;54.70
4406;DHT22;2216;53.806;11.598;2022-08-19T06:08:41;21.30;54.80
4406;DHT22;2216;53.806;11.598;2022-08-19T06:11:23;21.30;55.00
4406;DHT22;2216;53.806;11.598;2022-08-19T06:13:52;21.20;54.80
4406;DHT22;2216;53.806;11.598;2022-08-19T06:16:20;21.20;54.90
4406;DHT22;2216;53.806;11.598;2022-08-19T06:18:51;21.20;54.90
4406;DHT22;2216;53.806;11.598;2022-08-19T06:21:22;21.20;55.20
4406;DHT22;2216;53.806;11.598;2022-08-19T06:23:50;21.20;55.10
4406;DHT22;2216;53.806;11.598;2022-08-19T06:26:18;21.20;55.30
4406;DHT22;2216;53.806;11.598;2022-08-19T06:28:45;21.10;55.20
4406;DHT22;2216;53.806;11.598;2022-08-19T06:31:32;21.10;55.10
4406;DHT22;2216;53.806;11.598;2022-08-19T06:34:00;21.10;55.30
4406;DHT22;2216;53.806;11.598;2022-08-19T06:36:31;21.20;55.30
4406;DHT22;2216;53.806;11.598;2022-08-19T06:39:03;21.10;55.40
4406;DHT22;2216;53.806;11.598;2022-08-19T06:41:31;21.20;55.40
4406;DHT22;2216;53.806;11.598;2022-08-19T06:43:58;21.20;55.20
4406;DHT22;2216;53.806;11.598;2022-08-19T06:46:24;21.20;55.40
4406;DHT22;2216;53.806;11.598;2022-08-19T06:48:50;21.20;56.00
4406;DHT22;2216;53.806;11.598;2022-08-19T06:51:18;21.20;55.50
4406;DHT22;2216;53.806;11.598;2022-08-19T06:53:46;21.20;55.90
4406;DHT22;2216;53.806;11.598;2022-08-19T06:56:14;21.20;55.80
4406;DHT22;2216;53.806;11.598;2022-08-19T06:58:41;21.30;55.80
4406;DHT22;2216;53.806;11.598;2022-08-19T07:01:07;21.30;56.20
4406;DHT22;2216;53.806;11.598;2022-08-19T07:03:34;21.30;55.80
4406;DHT22;2216;53.806;11.598;2022-08-19T07:06:10;21.30;55.80
4406;DHT22;2216;53.806;11.598;2022-08-19T07:08:38;21.30;55.90
4406;DHT22;2216;53.806;11.598;2022-08-19T07:11:09;21.30;56.00
4406;DHT22;2216;53.806;11.598;2022-08-19T07:13:37;21.40;56.00
4406;DHT22;2216;53.806;11.598;2022-08-19T07:16:05;21.40;55.80
4406;DHT22;2216;53.806;11.598;2022-08-19T07:18:31;21.40;56.10
4406;DHT22;2216;53.806;11.598;2022-08-19T07:21:12;21.40;55.90
4406;DHT22;2216;53.806;11.598;2022-08-19T07:23:40;21.40;56.40
4406;DHT22;2216;53.806;11.598;2022-08-19T07:26:11;21.40;55.90
4406;DHT22;2216;53.806;11.598;2022-08-19T07:28:47;21.50;55.90
4406;DHT22;2216;53.806;11.598;2022-08-19T07:31:15;21.50;56.10
4406;DHT22;2216;53.806;11.598;2022-08-19T07:33:47;21.50;55.90
4406;DHT22;2216;53.806;11.598;2022-08-19T07:36:17;21.50;56.20
4406;DHT22;2216;53.806;11.598;2022-08-19T07:38:46;21.50;56.20
4406;DHT22;2216;53.806;11.598;2022-08-19T07:41:19;21.50;56.90
4406;DHT22;2216;53.806;11.598;2022-08-19T07:43:47;21.50;56.10
4406;DHT22;2216;53.806;11.598;2022-08-19T07:46:14;21.50;56.10
4406;DHT22;2216;53.806;11.598;2022-08-19T07:48:42;21.50;56.20
4406;DHT22;2216;53.806;11.598;2022-08-19T07:51:16;21.50;56.10
4406;DHT22;2216;53.806;11.598;2022-08-19T07:53:46;21.50;56.00
4406;DHT22;2216;53.806;11.598;2022-08-19T07:56:14;21.50;56.00
4406;DHT22;2216;53.806;11.598;2022-08-19T07:58:42;21.60;56.10
4406;DHT22;2216;53.806;11.598;2022-08-19T08:01:12;21.60;56.00
4406;DHT22;2216;53.806;11.598;2022-08-19T08:03:41;21.60;56.50
4406;DHT22;2216;53.806;11.598;2022-08-19T08:06:25;21.60;56.40
4406;DHT22;2216;53.806;11.598;2022-08-19T08:09:09;21.60;56.30
4406;DHT22;2216;53.806;11.598;2022-08-19T08:11:45;21.60;56.20
4406;DHT22;2216;53.806;11.598;2022-08-19T08:14:40;21.60;56.40
4406;DHT22;2216;53.806;11.598;2022-08-19T08:17:10;21.60;56.10
4406;DHT22;2216;53.806;11.598;2022-08-19T08:19:36;21.50;56.10
4406;DHT22;2216;53.806;11.598;2022-08-19T08:22:03;21.60;56.20
4406;DHT22;2216;53.806;11.598;2022-08-19T08:24:31;21.60;56.20
4406;DHT22;2216;53.806;11.598;2022-08-19T08:26:59;21.70;56.20
4406;DHT22;2216;53.806;11.598;2022-08-19T08:29:30;21.70;56.10
4406;DHT22;2216;53.806;11.598;2022-08-19T08:31:57;21.70;56.10
4406;DHT22;2216;53.806;11.598;2022-08-19T08:34:23;21.80;56.10
4406;DHT22;2216;53.806;11.598;2022-08-19T08:36:48;21.80;56.10
4406;DHT22;2216;53.806;11.598;2022-08-19T08:39:18;21.80;56.20
4406;DHT22;2216;53.806;11.598;2022-08-19T08:47:30;21.80;56.20
4406;DHT22;2216;53.806;11.598;2022-08-19T08:50:19;21.80;56.30
4406;DHT22;2216;53.806;11.598;2022-08-19T08:53:04;21.80;56.30
4406;DHT22;2216;53.806;11.598;2022-08-19T08:55:31;21.80;56.40
4406;DHT22;2216;53.806;11.598;2022-08-19T08:58:02;21.80;56.20
4406;DHT22;2216;53.806;11.598;2022-08-19T09:00:34;21.80;56.20
4406;DHT22;2216;53.806;11.598;2022-08-19T09:03:07;21.80;57.10
4406;DHT22;2216;53.806;11.598;2022-08-19T09:11:13;21.80;56.80
4406;DHT22;2216;53.806;11.598;2022-08-19T09:14:07;21.90;56.50
4406;DHT22;2216;53.806;11.598;2022-08-19T09:16:39;21.90;56.40
4406;DHT22;2216;53.806;11.598;2022-08-19T09:19:07;21.90;56.40
4406;DHT22;2216;53.806;11.598;2022-08-19T09:21:34;22.00;56.40
4406;DHT22;2216;53.806;11.598;2022-08-19T09:24:01;22.00;56.50
4406;DHT22;2216;53.806;11.598;2022-08-19T09:26:27;22.00;56.50
4406;DHT22;2216;53.806;11.598;2022-08-19T09:28:53;22.00;56.50
4406;DHT22;2216;53.806;11.598;2022-08-19T09:31:22;22.10;56.50
4406;DHT22;2216;53.806;11.598;2022-08-19T09:33:50;22.10;56.50
4406;DHT22;2216;53.806;11.598;2022-08-19T09:36:19;22.30;56.70
4406;DHT22;2216;53.806;11.598;2022-08-19T09:38:47;22.10;56.50
4406;DHT22;2216;53.806;11.598;2022-08-19T09:41:16;22.10;56.50
4406;DHT22;2216;53.806;11.598;2022-08-19T09:43:45;22.20;56.50
4406;DHT22;2216;53.806;11.598;2022-08-19T09:46:12;22.10;56.40
4406;DHT22;2216;53.806;11.598;2022-08-19T09:48:39;22.20;56.40
4406;DHT22;2216;53.806;11.598;2022-08-19T09:51:09;22.20;56.40
4406;DHT22;2216;53.806;11.598;2022-08-19T09:53:43;22.20;56.50
4406;DHT22;2216;53.806;11.598;2022-08-19T09:56:09;22.30;56.40
4406;DHT22;2216;53.806;11.598;2022-08-19T09:58:36;22.30;56.70
4406;DHT22;2216;53.806;11.598;2022-08-19T10:01:04;22.30;56.40
4406;DHT22;2216;53.806;11.598;2022-08-19T10:03:32;22.30;56.60
4406;DHT22;2216;53.806;11.598;2022-08-19T10:06:00;22.30;56.50
4406;DHT22;2216;53.806;11.598;2022-08-19T10:08:30;22.30;56.40
4406;DHT22;2216;53.806;11.598;2022-08-19T10:11:00;22.30;56.50
4406;DHT22;2216;53.806;11.598;2022-08-19T10:13:30;22.30;56.50
4406;DHT22;2216;53.806;11.598;2022-08-19T10:16:06;22.30;56.60
4406;DHT22;2216;53.806;11.598;2022-08-19T10:18:35;22.40;56.50
4406;DHT22;2216;53.806;11.598;2022-08-19T10:21:17;22.40;56.50
4406;DHT22;2216;53.806;11.598;2022-08-19T10:23:52;22.40;56.60
4406;DHT22;2216;53.806;11.598;2022-08-19T10:26:31;22.40;56.60
4406;DHT22;2216;53.806;11.598;2022-08-19T10:28:59;22.40;57.10
4406;DHT22;2216;53.806;11.598;2022-08-19T10:31:29;22.40;56.50
4406;DHT22;2216;53.806;11.598;2022-08-19T10:33:56;22.40;56.50
4406;DHT22;2216;53.806;11.598;2022-08-19T10:36:29;22.40;57.10
4406;DHT22;2216;53.806;11.598;2022-08-19T10:38:59;22.40;57.00
4406;DHT22;2216;53.806;11.598;2022-08-19T10:41:30;22.40;56.80
4406;DHT22;2216;53.806;11.598;2022-08-19T10:44:00;22.30;56.70
4406;DHT22;2216;53.806;11.598;2022-08-19T10:46:29;22.30;57.40
4406;DHT22;2216;53.806;11.598;2022-08-19T10:48:59;22.30;56.70
4406;DHT22;2216;53.806;11.598;2022-08-19T10:51:26;22.30;56.60
4406;DHT22;2216;53.806;11.598;2022-08-19T10:54:10;22.10;56.60
4406;DHT22;2216;53.806;11.598;2022-08-19T10:56:36;22.30;56.60
4406;DHT22;2216;53.806;11.598;2022-08-19T10:59:20;22.30;56.70
4406;DHT22;2216;53.806;11.598;2022-08-19T11:01:53;22.30;56.60
4406;DHT22;2216;53.806;11.598;2022-08-19T11:04:23;22.30;56.60
4406;DHT22;2216;53.806;11.598;2022-08-19T11:06:49;22.40;57.10
4406;DHT22;2216;53.806;11.598;2022-08-19T11:09:18;22.30;56.90
4406;DHT22;2216;53.806;11.598;2022-08-19T11:11:46;22.30;56.70
4406;DHT22;2216;53.806;11.598;2022-08-19T11:14:17;22.30;56.90
4406;DHT22;2216;53.806;11.598;2022-08-19T11:16:47;22.40;57.20
4406;DHT22;2216;53.806;11.598;2022-08-19T11:19:14;22.40;57.00
4406;DHT22;2216;53.806;11.598;2022-08-19T11:21:45;22.40;56.90
4406;DHT22;2216;53.806;11.598;2022-08-19T11:24:15;22.40;57.10
4406;DHT22;2216;53.806;11.598;2022-08-19T11:26:44;22.40;57.00
4406;DHT22;2216;53.806;11.598;2022-08-19T11:29:11;22.50;57.30
4406;DHT22;2216;53.806;11.598;2022-08-19T11:31:40;22.50;57.90
4406;DHT22;2216;53.806;11.598;2022-08-19T11:34:12;22.50;57.20
4406;DHT22;2216;53.806;11.598;2022-08-19T11:36:41;22.60;57.30
4406;DHT22;2216;53.806;11.598;2022-08-19T11:39:10;22.50;57.10
4406;DHT22;2216;53.806;11.598;2022-08-19T11:41:37;22.60;57.40
4406;DHT22;2216;53.806;11.598;2022-08-19T11:44:03;22.60;57.40
4406;DHT22;2216;53.806;11.598;2022-08-19T11:46:30;22.60;57.90
4406;DHT22;2216;53.806;11.598;2022-08-19T11:48:57;22.70;57.40
4406;DHT22;2216;53.806;11.598;2022-08-19T11:51:25;22.70;57.50
4406;DHT22;2216;53.806;11.598;2022-08-19T11:53:54;22.70;57.70
4406;DHT22;2216;53.806;11.598;2022-08-19T11:56:21;22.70;57.70
4406;DHT22;2216;53.806;11.598;2022-08-19T11:58:48;22.70;57.60
4406;DHT22;2216;53.806;11.598;2022-08-19T12:01:16;22.80;57.50
4406;DHT22;2216;53.806;11.598;2022-08-19T12:03:44;22.80;57.40
4406;DHT22;2216;53.806;11.598;2022-08-19T12:06:13;22.90;57.70
4406;DHT22;2216;53.806;11.598;2022-08-19T12:08:41;22.90;57.50
4406;DHT22;2216;53.806;11.598;2022-08-19T12:11:09;22.90;57.30
4406;DHT22;2216;53.806;11.598;2022-08-19T12:13:37;22.90;57.40
4406;DHT22;2216;53.806;11.598;2022-08-19T12:16:12;22.90;57.30
4406;DHT22;2216;53.806;11.598;2022-08-19T12:18:41;22.90;57.30
4406;DHT22;2216;53.806;11.598;2022-08-19T12:21:11;22.90;57.30
4406;DHT22;2216;53.806;11.598;2022-08-19T12:23:39;22.90;57.30
4406;DHT22;2216;53.806;11.598;2022-08-19T12:26:06;23.00;57.40
4406;DHT22;2216;53.806;11.598;2022-08-19T12:28:33;23.00;57.30
4406;DHT22;2216;53.806;11.598;2022-08-19T12:30:59;23.10;57.50
4406;DHT22;2216;53.806;11.598;2022-08-19T12:33:25;23.10;57.50
4406;DHT22;2216;53.806;11.598;2022-08-19T12:35:53;23.10;57.50
4406;DHT22;2216;53.806;11.598;2022-08-19T12:38:20;23.20;58.00
4406;DHT22;2216;53.806;11.598;2022-08-19T12:40:49;23.20;58.10
4406;DHT22;2216;53.806;11.598;2022-08-19T12:43:17;23.30;57.60
4406;DHT22;2216;53.806;11.598;2022-08-19T12:45:45;23.30;57.70
4406;DHT22;2216;53.806;11.598;2022-08-19T12:48:11;23.40;57.50
4406;DHT22;2216;53.806;11.598;2022-08-19T12:50:41;23.50;57.60
4406;DHT22;2216;53.806;11.598;2022-08-19T12:53:08;23.50;57.70
4406;DHT22;2216;53.806;11.598;2022-08-19T12:55:34;23.50;57.70
4406;DHT22;2216;53.806;11.598;2022-08-19T12:57:59;23.50;57.40
4406;DHT22;2216;53.806;11.598;2022-08-19T13:00:27;23.60;57.90
4406;DHT22;2216;53.806;11.598;2022-08-19T13:02:53;23.60;57.70
4406;DHT22;2216;53.806;11.598;2022-08-19T13:05:23;23.60;58.00
4406;DHT22;2216;53.806;11.598;2022-08-19T13:07:52;23.60;57.80
4406;DHT22;2216;53.806;11.598;2022-08-19T13:10:24;23.70;57.60
4406;DHT22;2216;53.806;11.598;2022-08-19T13:12:53;23.70;57.60
4406;DHT22;2216;53.806;11.598;2022-08-19T13:15:21;23.70;57.90
4406;DHT22;2216;53.806;11.598;2022-08-19T13:17:49;23.70;57.80
4406;DHT22;2216;53.806;11.598;2022-08-19T13:20:19;23.70;58.20
4406;DHT22;2216;53.806;11.598;2022-08-19T13:22:46;23.70;57.80
4406;DHT22;2216;53.806;11.598;2022-08-19T13:25:13;23.70;58.20
4406;DHT22;2216;53.806;11.598;2022-08-19T13:27:41;23.80;58.40
4406;DHT22;2216;53.806;11.598;2022-08-19T13:30:09;23.80;58.00
4406;DHT22;2216;53.806;11.598;2022-08-19T13:32:55;23.90;58.20
4406;DHT22;2216;53.806;11.598;2022-08-19T13:35:56;23.90;58.50
4406;DHT22;2216;53.806;11.598;2022-08-19T13:38:24;24.00;58.30
4406;DHT22;2216;53.806;11.598;2022-08-19T13:40:51;24.10;58.30
4406;DHT22;2216;53.806;11.598;2022-08-19T13:43:19;24.30;59.10
4406;DHT22;2216;53.806;11.598;2022-08-19T13:45:48;24.40;58.90
4406;DHT22;2216;53.806;11.598;2022-08-19T13:48:14;24.50;58.60
4406;DHT22;2216;53.806;11.598;2022-08-19T13:50:43;24.60;59.20
4406;DHT22;2216;53.806;11.598;2022-08-19T13:53:11;24.70;58.90
4406;DHT22;2216;53.806;11.598;2022-08-19T13:55:41;24.70;58.40
4406;DHT22;2216;53.806;11.598;2022-08-19T13:58:08;24.80;58.60
4406;DHT22;2216;53.806;11.598;2022-08-19T14:00:39;24.90;58.50
4406;DHT22;2216;53.806;11.598;2022-08-19T14:03:06;24.90;58.60
4406;DHT22;2216;53.806;11.598;2022-08-19T14:05:33;25.00;58.40
4406;DHT22;2216;53.806;11.598;2022-08-19T14:07:59;25.00;58.30
4406;DHT22;2216;53.806;11.598;2022-08-19T14:10:26;25.10;58.70
4406;DHT22;2216;53.806;11.598;2022-08-19T14:12:55;25.10;58.50
4406;DHT22;2216;53.806;11.598;2022-08-19T14:15:22;25.10;58.40
4406;DHT22;2216;53.806;11.598;2022-08-19T14:17:48;25.20;58.30
4406;DHT22;2216;53.806;11.598;2022-08-19T14:20:14;25.10;58.60
4406;DHT22;2216;53.806;11.598;2022-08-19T14:22:41;25.10;58.30
4406;DHT22;2216;53.806;11.598;2022-08-19T14:25:09;25.10;58.50
4406;DHT22;2216;53.806;11.598;2022-08-19T14:27:40;25.10;58.60
4406;DHT22;2216;53.806;11.598;2022-08-19T14:30:08;25.00;58.10
4406;DHT22;2216;53.806;11.598;2022-08-19T14:32:35;25.00;58.60
4406;DHT22;2216;53.806;11.598;2022-08-19T14:35:02;25.10;58.00
4406;DHT22;2216;53.806;11.598;2022-08-19T14:37:28;24.80;58.30
4406;DHT22;2216;53.806;11.598;2022-08-19T14:39:54;24.80;58.10
4406;DHT22;2216;53.806;11.598;2022-08-19T14:42:19;24.70;58.50
4406;DHT22;2216;53.806;11.598;2022-08-19T14:44:45;24.70;58.10
4406;DHT22;2216;53.806;11.598;2022-08-19T14:47:11;24.60;58.30
4406;DHT22;2216;53.806;11.598;2022-08-19T14:49:37;24.60;58.00
4406;DHT22;2216;53.806;11.598;2022-08-19T14:52:04;24.50;58.20
4406;DHT22;2216;53.806;11.598;2022-08-19T14:54:30;24.50;59.30
4406;DHT22;2216;53.806;11.598;2022-08-19T14:56:56;24.50;58.70
4406;DHT22;2216;53.806;11.598;2022-08-19T14:59:22;24.50;58.90
4406;DHT22;2216;53.806;11.598;2022-08-19T15:01:48;24.40;58.60
4406;DHT22;2216;53.806;11.598;2022-08-19T15:04:14;24.40;58.50
4406;DHT22;2216;53.806;11.598;2022-08-19T15:06:39;24.40;58.90
4406;DHT22;2216;53.806;11.598;2022-08-19T15:09:07;24.30;58.70
4406;DHT22;2216;53.806;11.598;2022-08-19T15:11:33;24.30;58.70
4406;DHT22;2216;53.806;11.598;2022-08-19T15:13:59;24.30;58.50
4406;DHT22;2216;53.806;11.598;2022-08-19T15:16:27;24.30;58.80
4406;DHT22;2216;53.806;11.598;2022-08-19T15:18:56;24.20;58.60
4406;DHT22;2216;53.806;11.598;2022-08-19T15:21:23;24.30;58.60
4406;DHT22;2216;53.806;11.598;2022-08-19T15:23:50;24.30;58.90
4406;DHT22;2216;53.806;11.598;2022-08-19T15:26:17;24.30;58.70
4406;DHT22;2216;53.806;11.598;2022-08-19T15:28:44;24.30;58.60
4406;DHT22;2216;53.806;11.598;2022-08-19T15:31:11;24.30;58.50
4406;DHT22;2216;53.806;11.598;2022-08-19T15:33:38;24.30;58.70
4406;DHT22;2216;53.806;11.598;2022-08-19T15:36:09;24.30;59.00
4406;DHT22;2216;53.806;11.598;2022-08-19T15:38:37;24.20;58.50
4406;DHT22;2216;53.806;11.598;2022-08-19T15:41:04;24.20;58.70
4406;DHT22;2216;53.806;11.598;2022-08-19T15:43:52;24.20;58.70
4406;DHT22;2216;53.806;11.598;2022-08-19T15:46:21;24.10;59.10
4406;DHT22;2216;53.806;11.598;2022-08-19T15:48:50;24.10;58.60
4406;DHT22;2216;53.806;11.598;2022-08-19T15:51:18;24.10;58.50
4406;DHT22;2216;53.806;11.598;2022-08-19T15:53:44;24.00;58.70
4406;DHT22;2216;53.806;11.598;2022-08-19T15:56:10;24.00;59.10
4406;DHT22;2216;53.806;11.598;2022-08-19T15:58:37;24.00;58.60
4406;DHT22;2216;53.806;11.598;2022-08-19T16:01:22;23.90;58.50
4406;DHT22;2216;53.806;11.598;2022-08-19T16:03:55;23.90;58.50
4406;DHT22;2216;53.806;11.598;2022-08-19T16:06:47;23.80;58.60
4406;DHT22;2216;53.806;11.598;2022-08-19T16:09:16;23.80;59.00